YAT weather

Attawapiskat Airport
Attawapiskat, Ontario, Canada

Public forecast

Using degrees Celsius for public forecast. Weather courtesy of forecast.io.

Current aviation weather report (METAR) for Attawapiskat Airport

Retrieved 2019/10/21 13:00 UTC (42 minutes ago):

CYAT 211300Z AUTO 11002KT 9SM CLR 01/01 A3008 RMK SLP189

Aviation forecast (TAF) for Attawapiskat Airport

Retrieved 2019/10/21 15:00 UTC (0 seconds ago):

TAF CYAT 211438Z 2115/2119 VRB03KT P6SM FEW020 BECMG 2115/2117 17007KT RMK FCST BASED ON AUTO OBS NXT FCST WILL BE ISSUED AT 220845Z